createdAt,value
2022-11-21T00:01:57.853Z,32.60
2022-11-21T00:04:32.247Z,31.80
2022-11-21T00:07:07.464Z,35.30
2022-11-21T00:09:42.116Z,32.00
2022-11-21T00:12:16.636Z,33.50
2022-11-21T00:17:28.966Z,29.90
2022-11-21T00:20:03.559Z,32.60
2022-11-21T00:22:36.981Z,32.50
2022-11-21T00:25:13.053Z,32.70
2022-11-21T00:27:47.327Z,32.40
2022-11-21T00:30:20.269Z,34.00
2022-11-21T00:32:55.672Z,32.00
2022-11-21T00:35:33.201Z,33.40
2022-11-21T00:38:06.354Z,35.50
2022-11-21T00:40:41.514Z,37.30
2022-11-21T00:43:16.994Z,34.20
2022-11-21T00:45:49.245Z,33.00
2022-11-21T00:48:25.289Z,34.90
2022-11-21T00:50:59.699Z,34.80
2022-11-21T00:53:33.283Z,35.00
2022-11-21T00:58:35.927Z,32.00
2022-11-21T01:01:11.010Z,30.20
2022-11-21T01:03:43.432Z,35.00
2022-11-21T01:06:17.079Z,34.00
2022-11-21T01:08:48.983Z,33.20
2022-11-21T01:11:22.396Z,37.00
2022-11-21T01:13:56.049Z,38.10
2022-11-21T01:16:29.096Z,37.80
2022-11-21T01:19:01.618Z,39.00
2022-11-21T01:21:33.975Z,36.60
2022-11-21T01:24:06.251Z,36.40
2022-11-21T01:26:38.577Z,37.30
2022-11-21T01:29:10.323Z,35.30
2022-11-21T01:31:42.427Z,36.60
2022-11-21T01:34:15.404Z,38.00
2022-11-21T01:36:47.430Z,39.50
2022-11-21T01:39:19.173Z,35.80
2022-11-21T01:41:51.418Z,38.10
2022-11-21T01:44:24.864Z,35.90
2022-11-21T01:50:00.311Z,32.30
2022-11-21T01:52:35.816Z,35.60
2022-11-21T01:55:33.999Z,35.90
2022-11-21T01:58:08.837Z,36.70
2022-11-21T02:00:44.002Z,37.50
2022-11-21T02:03:28.988Z,41.10
2022-11-21T02:06:01.408Z,41.90
2022-11-21T02:08:35.978Z,43.30
2022-11-21T02:11:15.615Z,39.20
2022-11-21T02:13:47.675Z,38.60
2022-11-21T02:16:21.793Z,44.80
2022-11-21T02:18:54.136Z,39.10
2022-11-21T02:21:34.163Z,39.30
2022-11-21T02:24:09.122Z,39.00
2022-11-21T02:26:41.152Z,36.50
2022-11-21T02:29:14.204Z,37.20
2022-11-21T02:31:51.334Z,38.50
2022-11-21T02:34:26.033Z,38.80
2022-11-21T02:37:04.162Z,42.50
2022-11-21T02:39:39.368Z,44.90
2022-11-21T02:42:22.905Z,39.20
2022-11-21T02:45:00.042Z,38.70
2022-11-21T02:47:33.215Z,36.90
2022-11-21T02:50:15.938Z,39.70
2022-11-21T02:52:47.791Z,43.20
2022-11-21T02:55:19.746Z,48.50
2022-11-21T02:57:51.588Z,48.50
2022-11-21T03:00:24.850Z,47.60
2022-11-21T03:02:56.618Z,46.60
2022-11-21T03:05:28.824Z,39.20
2022-11-21T03:08:00.742Z,42.40
2022-11-21T03:10:32.830Z,40.70
2022-11-21T03:13:04.755Z,41.80
2022-11-21T03:15:38.549Z,41.70
2022-11-21T03:18:12.760Z,39.50
2022-11-21T03:20:44.650Z,38.10
2022-11-21T03:23:16.580Z,39.50
2022-11-21T03:25:49.939Z,37.10
2022-11-21T03:28:22.016Z,37.90
2022-11-21T03:30:57.288Z,37.70
2022-11-21T03:33:33.950Z,38.70
2022-11-21T03:36:15.510Z,41.00
2022-11-21T03:38:51.142Z,44.10
2022-11-21T03:41:32.169Z,41.00
2022-11-21T03:44:07.159Z,44.00
2022-11-21T03:46:42.965Z,48.00
2022-11-21T03:49:17.197Z,44.40
2022-11-21T03:51:52.616Z,42.60
2022-11-21T03:54:30.475Z,39.70
2022-11-21T03:57:05.147Z,44.20
2022-11-21T03:59:37.141Z,45.40
2022-11-21T04:02:08.975Z,45.30
2022-11-21T04:04:40.920Z,44.20
2022-11-21T04:07:13.673Z,45.10
2022-11-21T04:09:45.583Z,46.30
2022-11-21T04:12:17.853Z,42.00
2022-11-21T04:14:50.107Z,44.10
2022-11-21T04:17:22.749Z,37.30
2022-11-21T04:19:55.135Z,44.50
2022-11-21T04:22:29.356Z,45.50
2022-11-21T04:25:09.031Z,45.90
2022-11-21T04:27:49.422Z,43.80
2022-11-21T04:30:33.722Z,46.20
2022-11-21T04:33:06.500Z,44.80
2022-11-21T04:35:38.737Z,39.70
2022-11-21T04:38:10.706Z,42.70
2022-11-21T04:40:44.038Z,37.00
2022-11-21T04:43:16.198Z,36.70
2022-11-21T04:46:00.489Z,34.90
2022-11-21T04:51:07.285Z,34.20
2022-11-21T04:56:16.900Z,38.40
2022-11-21T04:58:55.018Z,37.80
2022-11-21T05:01:28.972Z,39.00
2022-11-21T05:07:02.519Z,34.30
2022-11-21T05:13:21.465Z,35.40
2022-11-21T05:16:40.800Z,37.10
2022-11-21T05:19:13.920Z,36.90
2022-11-21T05:21:47.447Z,36.70
2022-11-21T05:24:26.857Z,38.00
2022-11-21T05:27:16.072Z,36.60
2022-11-21T05:29:55.745Z,38.50
2022-11-21T05:32:28.626Z,37.80
2022-11-21T05:35:01.180Z,40.50
2022-11-21T05:37:33.267Z,38.70
2022-11-21T05:40:07.447Z,36.70
2022-11-21T05:43:06.030Z,41.10
2022-11-21T05:45:42.347Z,39.90
2022-11-21T05:48:17.031Z,36.60
2022-11-21T05:51:13.327Z,40.90
2022-11-21T05:53:47.175Z,40.30
2022-11-21T05:56:24.117Z,40.10
2022-11-21T05:59:22.850Z,39.00
2022-11-21T06:02:19.101Z,37.40
2022-11-21T06:05:28.011Z,37.10
2022-11-21T06:08:11.302Z,36.00
2022-11-21T06:10:49.785Z,31.50
2022-11-21T06:13:25.215Z,38.60
2022-11-21T06:16:02.502Z,41.80
2022-11-21T06:18:35.893Z,41.60
2022-11-21T06:21:18.836Z,42.30
2022-11-21T06:23:54.554Z,41.70
2022-11-21T06:26:30.839Z,38.60
2022-11-21T06:29:03.756Z,41.20
2022-11-21T06:31:47.975Z,40.90
2022-11-21T06:34:23.402Z,37.60
2022-11-21T06:37:09.477Z,36.40
2022-11-21T06:40:01.055Z,36.50
2022-11-21T06:43:27.776Z,36.40
2022-11-21T06:46:26.858Z,38.70
2022-11-21T06:49:04.879Z,37.50
2022-11-21T06:51:42.364Z,40.90
2022-11-21T06:54:19.342Z,37.00
2022-11-21T06:56:59.982Z,35.10
2022-11-21T06:59:42.160Z,40.20
2022-11-21T07:02:26.787Z,37.60
2022-11-21T07:05:05.199Z,40.60
2022-11-21T07:07:37.816Z,39.80
2022-11-21T07:10:13.688Z,39.80
2022-11-21T07:13:03.535Z,41.30
2022-11-21T07:15:36.343Z,41.90
2022-11-21T07:18:20.590Z,39.50
2022-11-21T07:21:08.434Z,39.00
2022-11-21T07:23:42.805Z,37.30
2022-11-21T07:26:29.170Z,38.00
2022-11-21T07:29:19.820Z,35.30
2022-11-21T07:31:58.864Z,35.70
2022-11-21T07:34:51.450Z,34.80
2022-11-21T07:37:23.411Z,37.20
2022-11-21T07:40:02.682Z,36.80
2022-11-21T07:42:52.830Z,36.30
2022-11-21T07:45:25.603Z,38.30
2022-11-21T07:48:05.503Z,39.70
2022-11-21T07:50:37.668Z,40.00
2022-11-21T07:53:12.456Z,38.10
2022-11-21T07:55:44.611Z,37.40
2022-11-21T07:58:18.449Z,40.80
2022-11-21T08:00:54.137Z,39.60
2022-11-21T08:03:26.009Z,38.00
2022-11-21T08:05:58.213Z,38.10
2022-11-21T08:08:30.170Z,43.70
2022-11-21T08:11:07.940Z,48.10
2022-11-21T08:13:49.349Z,54.40
2022-11-21T08:16:23.051Z,53.60
2022-11-21T08:18:56.743Z,50.60
2022-11-21T08:21:31.921Z,53.00
2022-11-21T08:24:10.852Z,53.10
2022-11-21T08:27:28.087Z,50.50
2022-11-21T08:30:10.084Z,49.40
2022-11-21T08:32:48.572Z,48.40
2022-11-21T08:35:24.110Z,47.70
2022-11-21T08:38:00.196Z,48.10
2022-11-21T08:40:33.328Z,48.60
2022-11-21T08:43:07.057Z,51.70
2022-11-21T08:45:40.181Z,49.50
2022-11-21T08:48:14.948Z,48.80
2022-11-21T08:50:47.013Z,56.90
2022-11-21T08:53:20.114Z,56.70
2022-11-21T08:55:52.178Z,49.50
2022-11-21T08:58:24.708Z,71.10
2022-11-21T09:00:56.548Z,51.80
2022-11-21T09:03:31.229Z,55.90
2022-11-21T09:06:03.669Z,54.60
2022-11-21T09:08:35.654Z,65.00
2022-11-21T09:11:09.186Z,49.70
2022-11-21T09:13:41.927Z,59.10
2022-11-21T09:16:32.210Z,53.40
2022-11-21T09:19:04.513Z,60.60
2022-11-21T09:21:36.440Z,46.10
2022-11-21T09:24:09.211Z,57.70
2022-11-21T09:26:41.135Z,46.70
2022-11-21T09:29:15.220Z,56.90
2022-11-21T09:31:47.289Z,38.50
2022-11-21T09:34:20.209Z,51.00
2022-11-21T09:36:52.109Z,64.10
2022-11-21T09:39:24.330Z,40.40
2022-11-21T09:42:07.901Z,46.00
2022-11-21T09:44:50.378Z,39.60
2022-11-21T09:47:26.331Z,44.00
2022-11-21T09:50:01.522Z,34.80
2022-11-21T09:52:40.858Z,32.20
2022-11-21T09:55:30.622Z,31.90
2022-11-21T09:58:04.100Z,27.50
2022-11-21T10:00:36.403Z,31.50
2022-11-21T10:03:10.188Z,25.60
2022-11-21T10:05:48.398Z,26.80
2022-11-21T10:08:23.981Z,24.80
2022-11-21T10:10:59.558Z,27.70
2022-11-21T10:13:46.118Z,27.40
2022-11-21T10:16:22.357Z,26.40
2022-11-21T10:19:09.444Z,27.00
2022-11-21T10:22:00.591Z,28.40
2022-11-21T10:24:46.650Z,26.40
2022-11-21T10:27:23.016Z,27.50
2022-11-21T10:30:00.030Z,28.00
2022-11-21T10:32:36.754Z,20.40
2022-11-21T10:35:18.304Z,25.40
2022-11-21T10:37:53.171Z,26.20
2022-11-21T10:40:31.016Z,24.60
2022-11-21T10:43:26.579Z,26.00
2022-11-21T10:45:58.673Z,25.30
2022-11-21T10:48:34.248Z,26.00
2022-11-21T10:51:24.443Z,26.10
2022-11-21T10:54:26.049Z,25.70
2022-11-21T10:57:07.876Z,21.90
2022-11-21T11:00:00.812Z,25.80
2022-11-21T11:02:34.775Z,25.50
2022-11-21T11:05:32.165Z,25.90
2022-11-21T11:08:31.002Z,24.30
2022-11-21T11:11:16.470Z,24.10
2022-11-21T11:14:08.381Z,26.50
2022-11-21T11:16:45.737Z,24.10
2022-11-21T11:19:37.032Z,26.70
2022-11-21T11:22:30.108Z,27.20
2022-11-21T11:25:01.815Z,26.60
2022-11-21T11:27:33.894Z,26.50
2022-11-21T11:30:15.618Z,26.20
2022-11-21T11:33:03.878Z,25.00
2022-11-21T11:35:37.125Z,22.40
2022-11-21T11:38:10.680Z,22.40
2022-11-21T11:40:45.011Z,24.60
2022-11-21T11:43:51.406Z,24.40
2022-11-21T11:46:49.597Z,22.80
2022-11-21T11:49:58.360Z,26.90
2022-11-21T11:52:33.217Z,25.90
2022-11-21T11:55:09.246Z,27.40
2022-11-21T11:57:41.564Z,26.30
2022-11-21T12:00:28.142Z,24.80
2022-11-21T12:03:04.193Z,25.90
2022-11-21T12:05:36.392Z,25.70
2022-11-21T12:11:29.283Z,24.20
2022-11-21T12:14:10.242Z,23.80
2022-11-21T12:16:43.970Z,23.80
2022-11-21T12:19:18.120Z,22.80
2022-11-21T12:22:12.230Z,25.70
2022-11-21T12:24:48.948Z,23.60
2022-11-21T12:27:30.522Z,24.30
2022-11-21T12:30:33.639Z,26.80
2022-11-21T12:33:09.595Z,27.60
2022-11-21T12:36:17.156Z,26.00
2022-11-21T12:39:09.708Z,26.70
2022-11-21T12:42:06.468Z,26.10
2022-11-21T12:44:50.042Z,26.00
2022-11-21T12:47:54.404Z,27.40
2022-11-21T12:50:48.976Z,26.60
2022-11-21T12:53:43.911Z,24.00
2022-11-21T12:56:22.920Z,26.20
2022-11-21T12:58:57.317Z,29.40
2022-11-21T13:01:37.349Z,26.10
2022-11-21T13:04:12.936Z,24.90
2022-11-21T13:06:48.321Z,26.60
2022-11-21T13:09:29.250Z,26.30
2022-11-21T13:12:05.813Z,29.30
2022-11-21T13:14:43.812Z,26.80
2022-11-21T13:17:24.632Z,29.70
2022-11-21T13:20:00.159Z,36.10
2022-11-21T13:22:56.366Z,27.00
2022-11-21T13:25:49.865Z,30.30
2022-11-21T13:28:33.695Z,28.40
2022-11-21T13:31:29.183Z,26.50
2022-11-21T13:34:01.637Z,28.60
2022-11-21T13:36:48.622Z,27.60
2022-11-21T13:39:32.334Z,29.20
2022-11-21T13:42:36.913Z,26.20
2022-11-21T13:48:26.478Z,26.00
2022-11-21T13:51:27.233Z,27.30
2022-11-21T13:54:15.027Z,25.40
2022-11-21T13:56:59.312Z,27.40
2022-11-21T13:59:44.572Z,29.40
2022-11-21T14:02:51.059Z,28.30
2022-11-21T14:05:38.076Z,30.50
2022-11-21T14:08:23.474Z,29.70
2022-11-21T14:10:58.082Z,29.90
2022-11-21T14:13:32.664Z,34.40
2022-11-21T14:16:18.086Z,30.00
2022-11-21T14:18:50.245Z,34.90
2022-11-21T14:21:27.381Z,33.80
2022-11-21T14:24:04.993Z,31.70
2022-11-21T14:27:28.706Z,38.00
2022-11-21T14:30:05.441Z,35.60
2022-11-21T14:32:37.787Z,39.00
2022-11-21T14:35:27.240Z,39.30
2022-11-21T14:38:01.033Z,36.70
2022-11-21T14:40:33.086Z,33.70
2022-11-21T14:43:25.020Z,39.30
2022-11-21T14:45:56.779Z,37.50
2022-11-21T14:48:32.884Z,40.80
2022-11-21T14:51:04.696Z,38.50
2022-11-21T14:53:36.920Z,40.70
2022-11-21T14:56:09.135Z,39.30
2022-11-21T14:58:43.825Z,37.10
2022-11-21T15:01:24.248Z,34.80
2022-11-21T15:04:01.470Z,39.50
2022-11-21T15:06:42.933Z,40.10
2022-11-21T15:12:14.154Z,35.60
2022-11-21T15:14:55.491Z,42.00
2022-11-21T15:17:27.639Z,39.10
2022-11-21T15:20:20.642Z,38.50
2022-11-21T15:22:55.115Z,33.70
2022-11-21T15:25:47.219Z,37.50
2022-11-21T15:28:25.808Z,34.90
2022-11-21T15:31:19.867Z,38.10
2022-11-21T15:34:34.792Z,39.20
2022-11-21T15:37:43.916Z,35.50
2022-11-21T15:40:45.653Z,39.40
2022-11-21T15:46:37.974Z,37.50
2022-11-21T15:52:07.681Z,37.50
2022-11-21T15:54:44.715Z,40.00
2022-11-21T15:57:12.763Z,35.10
2022-11-21T16:00:01.003Z,37.00
2022-11-21T16:02:36.757Z,40.90
2022-11-21T16:05:14.767Z,37.00
2022-11-21T16:07:48.571Z,35.10
2022-11-21T16:10:28.190Z,35.90
2022-11-21T16:13:03.164Z,41.70
2022-11-21T16:15:44.814Z,35.80
2022-11-21T16:18:17.107Z,38.40
2022-11-21T16:21:01.616Z,38.30
2022-11-21T16:23:38.752Z,39.80
2022-11-21T16:26:17.298Z,28.30
2022-11-21T16:28:49.196Z,38.30
2022-11-21T16:31:26.217Z,34.70
2022-11-21T16:34:01.159Z,34.50
2022-11-21T16:36:34.905Z,37.40
2022-11-21T16:39:12.377Z,39.80
2022-11-21T16:41:48.027Z,33.30
2022-11-21T16:44:20.684Z,36.70
2022-11-21T16:46:55.414Z,36.40
2022-11-21T16:49:29.154Z,38.90
2022-11-21T16:52:01.533Z,32.50
2022-11-21T16:54:33.597Z,33.70
2022-11-21T16:57:05.616Z,38.40
2022-11-21T16:59:39.761Z,38.40
2022-11-21T17:04:47.004Z,37.10
2022-11-21T17:07:19.554Z,37.90
2022-11-21T17:09:56.612Z,37.10
2022-11-21T17:12:29.216Z,39.20
2022-11-21T17:15:09.051Z,36.20
2022-11-21T17:17:44.366Z,38.10
2022-11-21T17:20:17.117Z,36.60
2022-11-21T17:22:51.091Z,36.90
2022-11-21T17:25:23.818Z,37.50
2022-11-21T17:27:56.053Z,38.80
2022-11-21T17:30:34.062Z,37.50
2022-11-21T17:33:11.236Z,39.20
2022-11-21T17:35:52.598Z,37.60
2022-11-21T17:38:26.906Z,39.20
2022-11-21T17:41:05.344Z,37.60
2022-11-21T17:43:37.894Z,39.00
2022-11-21T17:46:13.154Z,39.40
2022-11-21T17:48:55.560Z,41.30
2022-11-21T17:51:37.979Z,37.60
2022-11-21T17:54:11.415Z,41.10
2022-11-21T17:56:46.603Z,52.10
2022-11-21T17:59:21.541Z,41.80
2022-11-21T18:01:53.596Z,40.60
2022-11-21T18:04:26.583Z,36.70
2022-11-21T18:07:00.678Z,41.60
2022-11-21T18:12:03.927Z,34.60
2022-11-21T18:14:36.996Z,38.00
2022-11-21T18:17:12.408Z,38.20
2022-11-21T18:19:45.226Z,40.70
2022-11-21T18:22:17.488Z,42.50
2022-11-21T18:24:51.162Z,40.00
2022-11-21T18:27:25.757Z,38.90
2022-11-21T18:29:57.565Z,39.20
2022-11-21T18:32:30.973Z,37.80
2022-11-21T18:35:04.252Z,41.10
2022-11-21T18:37:38.272Z,36.90
2022-11-21T18:40:13.251Z,38.50
2022-11-21T18:42:45.284Z,38.20
2022-11-21T18:45:17.514Z,37.50
2022-11-21T18:47:49.968Z,38.40
2022-11-21T18:50:22.486Z,37.80
2022-11-21T18:53:01.145Z,36.00
2022-11-21T18:55:33.025Z,39.10
2022-11-21T18:58:05.204Z,35.00
2022-11-21T19:00:41.368Z,35.80
2022-11-21T19:03:21.001Z,39.00
2022-11-21T19:05:55.819Z,39.90
2022-11-21T19:08:28.886Z,40.20
2022-11-21T19:11:05.744Z,37.10
2022-11-21T19:13:37.946Z,39.30
2022-11-21T19:16:13.829Z,40.00
2022-11-21T19:19:18.583Z,36.70
2022-11-21T19:21:51.826Z,37.80
2022-11-21T19:24:24.294Z,36.50
2022-11-21T19:27:01.647Z,38.40
2022-11-21T19:29:35.344Z,36.60
2022-11-21T19:32:08.418Z,36.10
2022-11-21T19:34:48.292Z,36.20
2022-11-21T19:37:22.962Z,38.60
2022-11-21T19:39:58.085Z,40.20
2022-11-21T19:42:39.914Z,38.10
2022-11-21T19:45:31.233Z,40.40
2022-11-21T19:48:11.331Z,38.20
2022-11-21T19:50:50.758Z,37.70
2022-11-21T19:53:26.099Z,39.60
2022-11-21T19:55:59.277Z,38.70
2022-11-21T19:58:31.497Z,37.00
2022-11-21T20:01:09.851Z,37.40
2022-11-21T20:03:44.895Z,38.40
2022-11-21T20:06:20.022Z,40.70
2022-11-21T20:08:55.541Z,34.30
2022-11-21T20:11:28.768Z,37.80
2022-11-21T20:14:01.102Z,37.70
2022-11-21T20:16:35.132Z,36.20
2022-11-21T20:19:08.829Z,37.90
2022-11-21T20:21:41.058Z,37.00
2022-11-21T20:24:13.286Z,31.60
2022-11-21T20:26:45.993Z,34.00
2022-11-21T20:29:18.285Z,34.70
2022-11-21T20:31:50.413Z,34.10
2022-11-21T20:34:22.678Z,37.10
2022-11-21T20:36:54.711Z,35.70
2022-11-21T20:39:32.178Z,35.20
2022-11-21T20:42:05.594Z,34.20
2022-11-21T20:47:32.074Z,38.30
2022-11-21T20:50:00.571Z,40.00
2022-11-21T20:55:18.781Z,43.00
2022-11-21T20:57:47.598Z,44.80
2022-11-21T21:00:18.117Z,43.20
2022-11-21T21:02:47.872Z,44.80
2022-11-21T21:05:16.543Z,46.20
2022-11-21T21:07:44.869Z,42.50
2022-11-21T21:10:14.507Z,40.40
2022-11-21T21:12:47.347Z,41.90
2022-11-21T21:15:17.325Z,41.90
2022-11-21T21:17:45.606Z,43.50
2022-11-21T21:20:13.859Z,42.70
2022-11-21T21:22:42.442Z,40.70
2022-11-21T21:25:11.140Z,41.40
2022-11-21T21:27:39.407Z,41.10
2022-11-21T21:30:10.465Z,44.80
2022-11-21T21:32:38.972Z,41.90
2022-11-21T21:35:08.448Z,42.20
2022-11-21T21:37:37.020Z,43.70
2022-11-21T21:40:08.085Z,39.60
2022-11-21T21:42:36.317Z,39.50
2022-11-21T21:45:05.732Z,38.50
2022-11-21T21:47:34.057Z,39.50
2022-11-21T21:50:02.257Z,37.70
2022-11-21T21:52:31.081Z,39.80
2022-11-21T21:54:59.310Z,36.90
2022-11-21T21:57:27.572Z,35.60
2022-11-21T21:59:56.288Z,37.50
2022-11-21T22:02:24.480Z,37.90
2022-11-21T22:04:52.763Z,37.30
2022-11-21T22:07:21.225Z,34.40
2022-11-21T22:09:49.554Z,37.00
2022-11-21T22:12:17.836Z,38.90
2022-11-21T22:14:46.284Z,36.90
2022-11-21T22:17:14.610Z,39.50
2022-11-21T22:19:42.808Z,40.50
2022-11-21T22:22:11.528Z,41.10
2022-11-21T22:24:39.990Z,38.20
2022-11-21T22:27:08.379Z,37.20
2022-11-21T22:29:36.814Z,39.10
2022-11-21T22:32:06.829Z,37.60
2022-11-21T22:34:34.999Z,35.20
2022-11-21T22:37:03.492Z,35.70
2022-11-21T22:39:32.477Z,37.90
2022-11-21T22:42:00.662Z,32.90
2022-11-21T22:44:29.229Z,35.40
2022-11-21T22:46:57.602Z,34.60
2022-11-21T22:49:25.902Z,35.40
2022-11-21T22:51:54.458Z,36.70
2022-11-21T22:54:22.725Z,39.10
2022-11-21T22:56:50.904Z,35.80
2022-11-21T22:59:19.521Z,36.20
2022-11-21T23:01:47.732Z,37.20
2022-11-21T23:04:17.831Z,31.30
2022-11-21T23:06:46.447Z,33.90
2022-11-21T23:09:14.759Z,35.20
2022-11-21T23:11:43.042Z,34.00
2022-11-21T23:14:11.661Z,34.50
2022-11-21T23:16:39.916Z,34.60
2022-11-21T23:19:08.211Z,34.40
2022-11-21T23:21:36.741Z,33.80
2022-11-21T23:24:06.146Z,30.70
2022-11-21T23:26:34.420Z,34.50
2022-11-21T23:29:08.373Z,32.30
2022-11-21T23:31:37.380Z,33.40
2022-11-21T23:34:05.929Z,33.90
2022-11-21T23:36:34.462Z,33.00
2022-11-21T23:39:08.738Z,33.50
2022-11-21T23:41:38.235Z,34.70
2022-11-21T23:44:06.568Z,34.70
2022-11-21T23:46:34.923Z,34.40
2022-11-21T23:49:03.384Z,36.60
2022-11-21T23:51:31.674Z,35.50
2022-11-21T23:54:01.447Z,34.80
2022-11-21T23:56:30.349Z,33.80
2022-11-21T23:58:58.852Z,36.00
